Time;durP1;ratioP1;P1;durP2;ratioP2;P2;SDS_P1;SDS_P2;PMS_P1;PMS_P2;Temp;Humidity;BMP_temperature;BMP_pressure;BME280_temperature;BME280_humidity;BME280_pressure;Samples;Min_cycle;Max_cycle;Signal;HPM_P1;HPM_P2
2022/01/17 00:02:25;;;;;;;24.70;14.00;;;;;;;;;;5049427;28;20025;-73
2022/01/17 00:04:51;;;;;;;25.95;14.95;;;;;;;;;;5049198;28;20013;-72
2022/01/17 00:07:17;;;;;;;25.27;15.10;;;;;;;;;;5049600;28;20497;-72
2022/01/17 00:09:43;;;;;;;24.65;14.18;;;;;;;;;;5049605;28;20372;-72
2022/01/17 00:12:10;;;;;;;30.48;16.15;;;;;;;;;;5049577;28;20108;-72
2022/01/17 00:14:40;;;;;;;27.40;14.55;;;;;;;;;;5049725;28;20029;-72
2022/01/17 00:17:32;;;;;;;23.57;13.83;;;;;;;;;;5049324;28;20098;-71
2022/01/17 00:19:57;;;;;;;25.52;13.95;;;;;;;;;;5048770;28;20402;-72
2022/01/17 00:22:23;;;;;;;23.05;14.10;;;;;;;;;;5052431;28;20021;-72
2022/01/17 00:24:50;;;;;;;26.38;14.73;;;;;;;;;;5053445;28;20037;-73
2022/01/17 00:27:17;;;;;;;25.85;13.88;;;;;;;;;;5035651;28;20043;-74
2022/01/17 00:29:43;;;;;;;25.95;14.50;;;;;;;;;;5053658;28;20033;-72
2022/01/17 00:32:09;;;;;;;25.63;14.95;;;;;;;;;;5053227;28;20025;-73
2022/01/17 00:34:35;;;;;;;22.30;13.38;;;;;;;;;;5052866;28;20035;-73
2022/01/17 00:37:01;;;;;;;27.63;15.02;;;;;;;;;;5052809;28;20068;-72
2022/01/17 00:39:27;;;;;;;23.80;13.82;;;;;;;;;;5052848;28;20406;-73
2022/01/17 00:41:53;;;;;;;23.17;13.10;;;;;;;;;;5035051;28;20395;-72
2022/01/17 00:44:21;;;;;;;19.02;12.15;;;;;;;;;;5052747;28;20029;-73
2022/01/17 00:46:47;;;;;;;22.65;13.38;;;;;;;;;;5052918;28;20017;-72
2022/01/17 00:49:14;;;;;;;21.20;12.88;;;;;;;;;;5052829;28;20020;-72
2022/01/17 00:51:39;;;;;;;23.60;12.88;;;;;;;;;;5052746;28;20083;-72
2022/01/17 00:54:05;;;;;;;20.55;12.23;;;;;;;;;;5052640;28;20456;-73
2022/01/17 00:56:31;;;;;;;30.05;16.13;;;;;;;;;;5052685;28;20056;-72
2022/01/17 00:58:58;;;;;;;28.13;15.77;;;;;;;;;;5052625;28;20526;-72
2022/01/17 01:01:24;;;;;;;25.67;13.45;;;;;;;;;;5053051;28;20064;-74
2022/01/17 01:03:50;;;;;;;24.48;15.43;;;;;;;;;;5052309;28;20061;-73
2022/01/17 01:06:16;;;;;;;25.58;15.63;;;;;;;;;;5034592;28;20025;-73
2022/01/17 01:08:42;;;;;;;23.85;13.38;;;;;;;;;;5052607;28;20025;-72
2022/01/17 01:11:08;;;;;;;25.63;15.07;;;;;;;;;;5052367;28;20116;-72
2022/01/17 01:13:34;;;;;;;26.23;15.18;;;;;;;;;;5052367;28;20021;-73
2022/01/17 01:28:57;;;;;;;23.15;13.52;;;;;;;;;;5052538;28;20522;-73
2022/01/17 01:31:37;;;;;;;24.50;14.07;;;;;;;;;;5052654;28;20033;-73
2022/01/17 01:34:05;;;;;;;21.73;13.45;;;;;;;;;;5032811;28;20036;-73
2022/01/17 01:36:33;;;;;;;24.88;14.35;;;;;;;;;;5051820;28;20028;-74
2022/01/17 01:38:59;;;;;;;26.15;16.30;;;;;;;;;;5051802;28;20049;-74
2022/01/17 01:41:25;;;;;;;26.00;15.07;;;;;;;;;;5052102;28;20017;-73
2022/01/17 01:43:51;;;;;;;28.70;17.17;;;;;;;;;;5051652;28;20021;-74
2022/01/17 01:46:19;;;;;;;26.25;15.23;;;;;;;;;;5051805;28;20025;-73
2022/01/17 01:48:45;;;;;;;27.35;16.42;;;;;;;;;;5052363;28;20104;-73
2022/01/17 01:51:11;;;;;;;33.60;18.75;;;;;;;;;;5051691;28;20267;-73
2022/01/17 01:53:38;;;;;;;28.42;15.57;;;;;;;;;;5033908;28;20032;-72
2022/01/17 01:56:04;;;;;;;29.60;16.92;;;;;;;;;;5051944;28;20329;-73
2022/01/17 01:58:30;;;;;;;26.02;16.23;;;;;;;;;;5033710;28;20505;-73
2022/01/17 02:00:56;;;;;;;35.10;18.63;;;;;;;;;;5051632;28;20013;-73
2022/01/17 02:03:22;;;;;;;26.25;16.10;;;;;;;;;;5051255;28;20035;-73
2022/01/17 02:05:51;;;;;;;29.55;16.67;;;;;;;;;;5051361;28;20028;-73
2022/01/17 02:08:17;;;;;;;28.23;15.57;;;;;;;;;;5051507;28;20064;-73
2022/01/17 02:10:43;;;;;;;30.27;15.35;;;;;;;;;;5051363;28;20048;-73
2022/01/17 02:13:09;;;;;;;26.02;15.95;;;;;;;;;;5051055;28;20029;-72
2022/01/17 02:15:40;;;;;;;30.83;17.80;;;;;;;;;;5051191;28;20096;-73
2022/01/17 02:18:08;;;;;;;27.02;15.80;;;;;;;;;;5051474;28;20033;-73
2022/01/17 02:20:44;;;;;;;24.30;15.13;;;;;;;;;;5033348;28;20063;-73
2022/01/17 02:23:10;;;;;;;27.70;15.82;;;;;;;;;;5051003;28;20021;-73
2022/01/17 02:25:36;;;;;;;27.17;16.08;;;;;;;;;;5051141;28;20107;-73
2022/01/17 02:28:03;;;;;;;28.65;17.05;;;;;;;;;;5051724;28;20096;-73
2022/01/17 02:30:32;;;;;;;25.08;14.15;;;;;;;;;;5050994;28;20029;-73
2022/01/17 02:32:58;;;;;;;27.25;16.17;;;;;;;;;;5050914;28;20376;-74
2022/01/17 02:35:24;;;;;;;25.98;15.48;;;;;;;;;;5050773;28;20082;-73
2022/01/17 02:37:50;;;;;;;24.98;15.35;;;;;;;;;;5032946;28;20057;-72
2022/01/17 02:40:18;;;;;;;23.23;14.38;;;;;;;;;;5050790;28;20120;-72
2022/01/17 02:42:46;;;;;;;30.20;15.98;;;;;;;;;;5050497;28;20123;-72
2022/01/17 02:47:57;;;;;;;25.45;14.68;;;;;;;;;;5050621;28;20028;-72
2022/01/17 02:50:23;;;;;;;24.63;14.05;;;;;;;;;;5050543;28;20032;-72
2022/01/17 02:52:49;;;;;;;18.48;12.35;;;;;;;;;;5050264;28;20025;-72
2022/01/17 02:55:15;;;;;;;23.67;14.25;;;;;;;;;;5050262;28;20107;-72
2022/01/17 02:57:41;;;;;;;20.92;13.38;;;;;;;;;;5050610;28;20082;-72
2022/01/17 03:00:10;;;;;;;20.05;12.43;;;;;;;;;;5032511;28;20033;-72
2022/01/17 03:02:36;;;;;;;21.27;12.77;;;;;;;;;;5050428;28;20031;-73
2022/01/17 03:05:07;;;;;;;19.05;11.77;;;;;;;;;;5032250;28;20029;-72
2022/01/17 03:07:33;;;;;;;20.67;13.15;;;;;;;;;;5050155;28;20029;-72
2022/01/17 03:10:03;;;;;;;20.73;12.65;;;;;;;;;;5050151;28;20040;-73
2022/01/17 03:12:30;;;;;;;18.50;11.98;;;;;;;;;;5050225;28;20031;-72
2022/01/17 03:14:56;;;;;;;20.63;11.45;;;;;;;;;;5050178;28;20021;-72
2022/01/17 03:17:22;;;;;;;19.25;11.85;;;;;;;;;;5049918;28;20116;-73
2022/01/17 03:19:48;;;;;;;16.80;10.40;;;;;;;;;;5032053;28;20033;-73
2022/01/17 03:22:14;;;;;;;19.55;12.65;;;;;;;;;;5049942;28;20394;-72
2022/01/17 03:24:40;;;;;;;20.30;12.15;;;;;;;;;;5049748;28;20021;-73
2022/01/17 03:27:06;;;;;;;19.80;11.95;;;;;;;;;;5050086;28;20028;-73
2022/01/17 03:29:32;;;;;;;19.27;11.85;;;;;;;;;;5049944;28;20036;-73
2022/01/17 03:31:58;;;;;;;21.65;12.27;;;;;;;;;;5049739;28;20025;-72
2022/01/17 03:34:24;;;;;;;22.88;11.82;;;;;;;;;;5050077;28;20032;-72
2022/01/17 03:36:50;;;;;;;19.17;10.77;;;;;;;;;;5031581;28;20033;-73
2022/01/17 03:39:16;;;;;;;15.90;10.55;;;;;;;;;;5049619;28;20076;-72
2022/01/17 03:41:42;;;;;;;14.82;10.43;;;;;;;;;;5049715;28;20031;-72
2022/01/17 03:44:08;;;;;;;17.58;10.80;;;;;;;;;;5031650;28;20020;-73
2022/01/17 03:46:35;;;;;;;16.67;9.90;;;;;;;;;;5049625;28;20033;-73
2022/01/17 03:49:02;;;;;;;16.05;10.75;;;;;;;;;;5049734;28;20041;-73
2022/01/17 03:51:28;;;;;;;18.00;11.48;;;;;;;;;;5031555;28;20020;-72
2022/01/17 03:53:54;;;;;;;16.05;10.23;;;;;;;;;;5031648;28;20068;-73
2022/01/17 03:56:20;;;;;;;14.90;8.70;;;;;;;;;;5048954;28;20370;-71
2022/01/17 03:58:47;;;;;;;15.18;9.30;;;;;;;;;;5031539;28;20021;-73
2022/01/17 04:01:13;;;;;;;14.57;9.55;;;;;;;;;;5049931;28;20108;-73
2022/01/17 04:03:39;;;;;;;14.27;9.13;;;;;;;;;;5049618;28;20053;-72
2022/01/17 04:06:05;;;;;;;14.77;9.27;;;;;;;;;;5049440;28;20100;-73
2022/01/17 04:08:34;;;;;;;15.45;9.68;;;;;;;;;;5049819;28;20028;-72
2022/01/17 04:11:00;;;;;;;14.88;9.57;;;;;;;;;;5049524;28;20032;-73
2022/01/17 04:13:26;;;;;;;15.95;9.90;;;;;;;;;;5031046;28;20032;-73
2022/01/17 04:15:52;;;;;;;15.15;9.05;;;;;;;;;;5049446;28;20029;-73
2022/01/17 04:18:23;;;;;;;14.77;9.60;;;;;;;;;;5049436;28;20112;-71
2022/01/17 04:20:49;;;;;;;21.92;11.38;;;;;;;;;;5049874;28;20045;-72
2022/01/17 04:23:15;;;;;;;14.48;9.02;;;;;;;;;;5049144;28;20106;-72
2022/01/17 04:25:42;;;;;;;16.38;9.02;;;;;;;;;;5031602;28;20044;-72
2022/01/17 04:28:09;;;;;;;15.18;9.90;;;;;;;;;;5050093;28;20541;-72
2022/01/17 04:30:36;;;;;;;14.68;9.05;;;;;;;;;;5049600;28;20047;-72
2022/01/17 04:33:02;;;;;;;11.80;8.15;;;;;;;;;;5049135;28;20027;-73
2022/01/17 04:35:28;;;;;;;12.38;8.07;;;;;;;;;;5031122;28;20041;-72
2022/01/17 04:37:56;;;;;;;17.95;9.70;;;;;;;;;;5049627;28;20104;-72
2022/01/17 04:40:22;;;;;;;16.42;8.98;;;;;;;;;;5049081;28;20032;-72
2022/01/17 04:42:51;;;;;;;13.63;8.35;;;;;;;;;;5048926;28;20053;-72
2022/01/17 04:45:19;;;;;;;12.88;7.95;;;;;;;;;;5049091;28;20024;-72
2022/01/17 04:47:46;;;;;;;13.90;8.68;;;;;;;;;;5049073;28;20044;-73
2022/01/17 04:50:13;;;;;;;15.88;8.13;;;;;;;;;;5048941;28;20029;-72
2022/01/17 04:52:39;;;;;;;13.77;8.93;;;;;;;;;;5048956;28;20445;-71
2022/01/17 04:55:08;;;;;;;11.60;8.02;;;;;;;;;;5049084;28;20100;-72
2022/01/17 04:57:34;;;;;;;12.75;8.50;;;;;;;;;;5048944;28;20445;-72
2022/01/17 05:00:00;;;;;;;13.70;7.85;;;;;;;;;;5048700;28;20509;-74
2022/01/17 05:02:26;;;;;;;11.52;7.75;;;;;;;;;;5049007;28;20025;-72
2022/01/17 05:04:52;;;;;;;12.18;7.82;;;;;;;;;;5048865;28;20066;-71
2022/01/17 05:07:18;;;;;;;13.20;8.63;;;;;;;;;;5049802;28;20037;-72
2022/01/17 05:09:45;;;;;;;13.50;8.88;;;;;;;;;;5052574;28;20048;-73
2022/01/17 05:12:12;;;;;;;13.23;7.30;;;;;;;;;;5052453;28;20409;-72
2022/01/17 05:14:46;;;;;;;14.18;7.45;;;;;;;;;;5051764;28;20110;-72
2022/01/17 05:17:57;;;;;;;12.07;7.07;;;;;;;;;;5052475;28;20048;-72
2022/01/17 05:20:05;;;;;;;12.55;7.90;;;;;;;;;;5050747;28;20075;-72
2022/01/17 05:22:33;;;;;;;10.35;6.22;;;;;;;;;;5052645;28;20033;-72
2022/01/17 05:25:00;;;;;;;10.25;6.82;;;;;;;;;;5051810;28;20063;-71
2022/01/17 05:27:26;;;;;;;10.88;6.47;;;;;;;;;;5052484;28;20024;-72
2022/01/17 05:29:52;;;;;;;10.43;6.10;;;;;;;;;;5051860;28;20467;-73
2022/01/17 05:32:18;;;;;;;9.80;6.05;;;;;;;;;;5052190;28;20746;-73
2022/01/17 05:34:44;;;;;;;9.95;6.97;;;;;;;;;;5051863;28;20029;-72
2022/01/17 05:37:10;;;;;;;15.43;7.57;;;;;;;;;;5061784;22;20045;-69
2022/01/17 05:39:37;;;;;;;9.93;5.85;;;;;;;;;;5013468;28;20046;-69
2022/01/17 05:42:04;;;;;;;12.95;7.28;;;;;;;;;;5031486;28;20555;-70
2022/01/17 05:44:29;;;;;;;9.85;5.35;;;;;;;;;;5031399;28;20033;-70
2022/01/17 05:46:55;;;;;;;11.05;6.20;;;;;;;;;;5031781;28;20403;-70
2022/01/17 05:49:21;;;;;;;10.40;6.57;;;;;;;;;;5013858;28;20025;-70
2022/01/17 05:51:47;;;;;;;10.75;5.90;;;;;;;;;;5031363;28;20033;-68
2022/01/17 05:54:13;;;;;;;9.43;5.57;;;;;;;;;;5031192;28;20034;-68
2022/01/17 05:56:39;;;;;;;10.38;5.88;;;;;;;;;;5031090;28;20074;-71
2022/01/17 05:59:06;;;;;;;11.25;6.22;;;;;;;;;;5031100;28;20026;-71
2022/01/17 06:01:31;;;;;;;11.13;5.88;;;;;;;;;;5013220;28;20032;-71
2022/01/17 06:03:57;;;;;;;9.68;5.32;;;;;;;;;;5013064;28;20030;-70
2022/01/17 06:06:23;;;;;;;11.95;5.95;;;;;;;;;;5031101;28;20547;-68
2022/01/17 06:08:49;;;;;;;11.43;6.68;;;;;;;;;;5030965;28;20419;-68
2022/01/17 06:11:15;;;;;;;11.65;5.90;;;;;;;;;;5030827;28;20488;-69
2022/01/17 06:13:44;;;;;;;11.63;6.43;;;;;;;;;;5030685;28;20017;-69
2022/01/17 06:16:10;;;;;;;11.88;5.70;;;;;;;;;;5030643;28;20026;-69
2022/01/17 06:18:36;;;;;;;10.10;5.90;;;;;;;;;;5029880;28;20034;-70
2022/01/17 06:21:01;;;;;;;12.73;6.50;;;;;;;;;;5030504;28;20021;-69
2022/01/17 06:23:27;;;;;;;12.80;6.13;;;;;;;;;;5012577;28;20180;-70
2022/01/17 06:25:53;;;;;;;14.07;7.07;;;;;;;;;;5012311;28;20017;-70
2022/01/17 06:28:19;;;;;;;14.88;7.18;;;;;;;;;;5030577;28;20021;-70
2022/01/17 06:30:45;;;;;;;14.30;7.13;;;;;;;;;;5030367;28;20430;-69
2022/01/17 06:33:11;;;;;;;16.25;7.63;;;;;;;;;;5030364;28;20044;-70
2022/01/17 06:35:37;;;;;;;19.30;8.18;;;;;;;;;;5030322;28;20030;-71
2022/01/17 06:38:04;;;;;;;12.00;7.22;;;;;;;;;;5030098;28;20036;-68
2022/01/17 06:40:30;;;;;;;14.23;6.60;;;;;;;;;;5030561;28;20046;-70
2022/01/17 06:42:56;;;;;;;16.30;7.20;;;;;;;;;;5030675;28;20032;-70
2022/01/17 06:45:22;;;;;;;13.43;7.20;;;;;;;;;;5030848;28;20029;-71
2022/01/17 06:47:48;;;;;;;13.25;7.88;;;;;;;;;;5030643;28;20033;-69
2022/01/17 06:50:14;;;;;;;11.82;6.70;;;;;;;;;;5030681;28;20060;-69
2022/01/17 06:52:40;;;;;;;14.95;7.55;;;;;;;;;;5030225;28;20487;-69
2022/01/17 06:55:07;;;;;;;15.85;6.90;;;;;;;;;;5030348;28;20021;-68
2022/01/17 06:57:33;;;;;;;14.02;7.03;;;;;;;;;;5030230;28;20109;-69
2022/01/17 06:59:59;;;;;;;12.85;7.30;;;;;;;;;;5030021;28;20029;-69
2022/01/17 07:02:25;;;;;;;13.63;7.18;;;;;;;;;;5030205;28;20020;-69
2022/01/17 07:04:51;;;;;;;17.00;7.53;;;;;;;;;;5030178;28;20092;-69
2022/01/17 07:07:17;;;;;;;14.18;6.63;;;;;;;;;;5030001;28;20098;-69
2022/01/17 07:09:43;;;;;;;11.52;7.07;;;;;;;;;;5030179;28;20026;-70
2022/01/17 07:12:09;;;;;;;11.75;6.72;;;;;;;;;;5029935;28;20124;-72
2022/01/17 07:14:41;;;;;;;11.63;7.45;;;;;;;;;;5029795;28;20151;-69
2022/01/17 07:17:07;;;;;;;13.65;6.68;;;;;;;;;;5029632;28;20021;-69
2022/01/17 07:19:33;;;;;;;11.40;5.32;;;;;;;;;;5029662;28;20056;-69
2022/01/17 07:21:59;;;;;;;13.35;5.80;;;;;;;;;;5029625;28;20053;-69
2022/01/17 07:24:25;;;;;;;10.07;5.88;;;;;;;;;;5029513;28;20037;-69
2022/01/17 07:26:51;;;;;;;9.05;6.03;;;;;;;;;;5029707;28;20017;-70
2022/01/17 07:29:17;;;;;;;10.52;5.22;;;;;;;;;;5029942;28;20033;-70
2022/01/17 07:31:43;;;;;;;17.30;6.35;;;;;;;;;;5029001;28;20522;-68
2022/01/17 07:34:11;;;;;;;10.77;5.47;;;;;;;;;;5029583;28;20056;-70
2022/01/17 07:36:37;;;;;;;11.77;5.50;;;;;;;;;;5030111;28;20060;-71
2022/01/17 07:39:04;;;;;;;11.00;5.47;;;;;;;;;;5030408;28;20440;-71
2022/01/17 07:41:30;;;;;;;13.30;5.60;;;;;;;;;;5029919;28;20022;-70
2022/01/17 07:43:56;;;;;;;14.30;5.30;;;;;;;;;;5011975;28;20055;-68
2022/01/17 07:46:33;;;;;;;10.85;5.25;;;;;;;;;;5029744;28;20041;-70
2022/01/17 07:49:09;;;;;;;9.98;5.03;;;;;;;;;;5029637;28;20033;-70
2022/01/17 07:51:36;;;;;;;9.57;5.07;;;;;;;;;;5030103;28;20135;-69
2022/01/17 07:54:03;;;;;;;15.60;5.25;;;;;;;;;;5029666;28;20457;-69
2022/01/17 07:56:30;;;;;;;11.73;4.65;;;;;;;;;;5029640;28;20030;-69
2022/01/17 07:58:56;;;;;;;15.00;5.53;;;;;;;;;;5029640;28;20061;-69
2022/01/17 08:01:22;;;;;;;8.98;4.18;;;;;;;;;;5029813;28;20484;-71
2022/01/17 08:03:48;;;;;;;9.90;4.82;;;;;;;;;;5029502;28;20029;-71
2022/01/17 08:06:14;;;;;;;9.27;4.38;;;;;;;;;;5011718;28;20028;-69
2022/01/17 08:08:40;;;;;;;15.18;4.93;;;;;;;;;;5029230;28;20333;-69
2022/01/17 08:11:06;;;;;;;8.07;4.45;;;;;;;;;;5011514;28;20060;-68
2022/01/17 08:13:32;;;;;;;6.70;4.55;;;;;;;;;;5011629;28;20107;-69
2022/01/17 08:15:58;;;;;;;10.40;4.60;;;;;;;;;;5011600;28;20045;-69
2022/01/17 08:18:24;;;;;;;6.13;3.70;;;;;;;;;;5029546;28;20487;-70
2022/01/17 08:20:50;;;;;;;10.95;4.72;;;;;;;;;;5029285;28;20087;-68
2022/01/17 08:23:16;;;;;;;7.45;4.18;;;;;;;;;;5029331;28;20116;-69
2022/01/17 08:25:42;;;;;;;10.38;4.13;;;;;;;;;;5029374;28;20491;-69
2022/01/17 08:28:08;;;;;;;7.25;3.72;;;;;;;;;;5029229;28;20396;-69
2022/01/17 08:30:34;;;;;;;9.35;4.10;;;;;;;;;;5011899;28;20029;-69
2022/01/17 08:33:00;;;;;;;9.95;3.88;;;;;;;;;;5028970;28;20460;-68
2022/01/17 08:35:27;;;;;;;11.30;4.07;;;;;;;;;;5029233;28;20033;-70
2022/01/17 08:37:53;;;;;;;10.20;3.90;;;;;;;;;;5029168;28;20072;-68
2022/01/17 08:40:19;;;;;;;7.72;3.47;;;;;;;;;;5029339;28;20064;-69
2022/01/17 08:42:46;;;;;;;10.00;3.83;;;;;;;;;;5030822;28;20017;-70
2022/01/17 08:45:13;;;;;;;10.05;4.00;;;;;;;;;;5015378;28;20272;-71
2022/01/17 08:47:39;;;;;;;8.50;3.85;;;;;;;;;;5032959;28;20383;-70
2022/01/17 08:50:06;;;;;;;9.15;3.88;;;;;;;;;;5032739;28;20025;-69
2022/01/17 08:52:32;;;;;;;8.18;3.92;;;;;;;;;;5032646;28;20021;-70
2022/01/17 08:54:58;;;;;;;10.73;4.03;;;;;;;;;;5032693;28;20029;-70
2022/01/17 08:57:24;;;;;;;12.13;4.15;;;;;;;;;;5032602;28;20087;-70
2022/01/17 08:59:50;;;;;;;11.82;3.53;;;;;;;;;;5032460;28;20549;-70
2022/01/17 09:02:17;;;;;;;9.38;3.38;;;;;;;;;;5032714;28;20123;-71
2022/01/17 09:04:43;;;;;;;8.25;3.58;;;;;;;;;;5032573;28;20052;-72
2022/01/17 09:07:10;;;;;;;14.23;4.07;;;;;;;;;;5032942;28;20108;-71
2022/01/17 09:09:37;;;;;;;8.93;4.28;;;;;;;;;;5032259;28;20483;-70
2022/01/17 09:12:03;;;;;;;12.18;4.22;;;;;;;;;;5032287;28;20029;-70
2022/01/17 09:14:29;;;;;;;10.75;4.28;;;;;;;;;;5031925;28;20029;-71
2022/01/17 09:16:55;;;;;;;10.07;4.40;;;;;;;;;;5032290;28;20055;-70
2022/01/17 09:19:21;;;;;;;12.00;3.92;;;;;;;;;;5032244;28;20025;-71
2022/01/17 09:21:47;;;;;;;13.15;4.15;;;;;;;;;;5032179;28;20030;-69
2022/01/17 09:24:13;;;;;;;11.00;4.10;;;;;;;;;;5032151;28;20097;-70
2022/01/17 09:26:39;;;;;;;11.27;4.50;;;;;;;;;;5031478;28;20036;-71
2022/01/17 09:29:05;;;;;;;8.15;3.72;;;;;;;;;;5023507;28;20030;-68
2022/01/17 09:31:31;;;;;;;13.80;4.72;;;;;;;;;;5018764;28;20018;-70
2022/01/17 09:33:57;;;;;;;13.65;4.18;;;;;;;;;;5032299;28;20025;-75
2022/01/17 09:36:25;;;;;;;11.18;4.57;;;;;;;;;;5020334;28;20044;-74
2022/01/17 09:38:52;;;;;;;11.75;4.07;;;;;;;;;;5012040;28;20025;-74
2022/01/17 09:41:18;;;;;;;10.98;3.95;;;;;;;;;;5012331;28;20034;-75
2022/01/17 09:43:45;;;;;;;8.85;3.08;;;;;;;;;;5018335;28;20022;-75
2022/01/17 09:46:11;;;;;;;10.68;3.38;;;;;;;;;;5013021;28;20022;-76
2022/01/17 09:48:39;;;;;;;11.52;3.25;;;;;;;;;;5012006;28;20014;-70
2022/01/17 09:51:41;;;;;;;9.98;3.20;;;;;;;;;;5017342;28;20425;-74
2022/01/17 09:53:58;;;;;;;15.70;3.35;;;;;;;;;;5010052;28;20030;-75
2022/01/17 09:56:26;;;;;;;60.20;26.50;;;;;;;;;;5013973;28;20400;-74
2022/01/17 09:58:52;;;;;;;166.65;63.75;;;;;;;;;;5018538;28;20064;-74
2022/01/17 10:01:18;;;;;;;243.45;90.38;;;;;;;;;;5028654;28;20017;-75
2022/01/17 10:03:45;;;;;;;70.72;24.38;;;;;;;;;;5015795;28;20017;-73
2022/01/17 10:06:11;;;;;;;70.05;25.73;;;;;;;;;;5024212;28;20129;-74
2022/01/17 10:08:37;;;;;;;76.35;26.90;;;;;;;;;;5022205;28;20108;-78
2022/01/17 10:11:13;;;;;;;58.50;22.52;;;;;;;;;;4999029;28;20575;-71
2022/01/17 10:13:41;;;;;;;36.17;12.60;;;;;;;;;;5027618;28;20026;-75
2022/01/17 10:16:08;;;;;;;116.05;46.50;;;;;;;;;;5017926;28;20426;-73
2022/01/17 10:18:42;;;;;;;201.90;74.40;;;;;;;;;;5002858;28;20030;-74
2022/01/17 10:21:29;;;;;;;98.05;38.10;;;;;;;;;;5026275;28;20021;-73
2022/01/17 10:24:11;;;;;;;131.27;49.25;;;;;;;;;;4993207;28;20018;-72
2022/01/17 10:37:14;;;;;;;65.07;25.10;;;;;;;;;;5026727;28;20445;-74
2022/01/17 10:39:55;;;;;;;51.90;19.17;;;;;;;;;;5014322;28;20033;-70
2022/01/17 10:42:25;;;;;;;33.40;12.15;;;;;;;;;;5022215;28;20018;-74
2022/01/17 10:44:51;;;;;;;79.38;28.75;;;;;;;;;;5023712;28;20051;-69
2022/01/17 10:47:18;;;;;;;49.55;18.83;;;;;;;;;;5031212;28;20026;-70
2022/01/17 10:49:48;;;;;;;39.60;13.88;;;;;;;;;;5030742;28;20029;-67
2022/01/17 10:52:26;;;;;;;54.17;21.48;;;;;;;;;;5013211;28;20116;-69
2022/01/17 10:54:56;;;;;;;41.72;15.20;;;;;;;;;;5032184;28;20033;-69
2022/01/17 10:57:22;;;;;;;70.30;25.73;;;;;;;;;;5032521;28;20017;-69
2022/01/17 10:59:51;;;;;;;43.03;16.13;;;;;;;;;;5032413;28;20029;-69
2022/01/17 11:02:17;;;;;;;53.13;20.85;;;;;;;;;;5032550;28;20025;-69
2022/01/17 11:04:43;;;;;;;28.75;10.10;;;;;;;;;;5031886;28;20032;-70
2022/01/17 11:07:09;;;;;;;42.03;16.08;;;;;;;;;;5032283;28;20028;-69
2022/01/17 11:09:57;;;;;;;46.53;19.48;;;;;;;;;;5032171;28;20423;-68
2022/01/17 11:12:28;;;;;;;29.48;11.68;;;;;;;;;;5032263;28;20021;-69
2022/01/17 11:14:57;;;;;;;61.65;23.33;;;;;;;;;;5031867;28;20034;-70
2022/01/17 11:17:37;;;;;;;28.20;10.85;;;;;;;;;;5032315;28;20061;-69
2022/01/17 11:20:08;;;;;;;39.50;14.80;;;;;;;;;;5032186;28;20032;-70
2022/01/17 11:22:35;;;;;;;21.65;8.18;;;;;;;;;;5014438;28;20025;-70
2022/01/17 11:25:03;;;;;;;32.63;11.05;;;;;;;;;;5032158;28;20025;-68
2022/01/17 11:27:29;;;;;;;22.20;7.38;;;;;;;;;;5032130;28;20463;-68
2022/01/17 11:29:55;;;;;;;22.20;7.05;;;;;;;;;;5031993;28;20071;-69
2022/01/17 11:32:22;;;;;;;15.90;5.90;;;;;;;;;;5013858;28;20033;-69
2022/01/17 11:34:49;;;;;;;20.10;7.53;;;;;;;;;;5031002;28;20032;-69
2022/01/17 11:37:15;;;;;;;13.70;5.53;;;;;;;;;;5055221;22;20048;-74
2022/01/17 11:39:59;;;;;;;23.75;8.32;;;;;;;;;;5072164;28;20028;-74
2022/01/17 11:42:42;;;;;;;18.10;7.75;;;;;;;;;;5054045;28;20020;-74
2022/01/17 11:45:24;;;;;;;10.48;4.28;;;;;;;;;;5053437;28;20505;-71
2022/01/17 11:47:50;;;;;;;22.13;7.68;;;;;;;;;;5053627;28;20027;-74
2022/01/17 11:50:28;;;;;;;13.32;5.18;;;;;;;;;;5071560;28;20028;-74
2022/01/17 11:52:55;;;;;;;9.35;4.10;;;;;;;;;;5071234;28;20044;-74
2022/01/17 11:55:42;;;;;;;10.45;4.35;;;;;;;;;;5053350;28;20173;-73
2022/01/17 11:58:22;;;;;;;12.27;5.20;;;;;;;;;;5071462;28;20477;-74
2022/01/17 12:00:57;;;;;;;11.60;5.50;;;;;;;;;;5071569;28;20028;-75
2022/01/17 12:03:45;;;;;;;10.65;4.65;;;;;;;;;;5071293;28;20628;-75
2022/01/17 12:06:18;;;;;;;11.32;4.60;;;;;;;;;;5071316;28;20498;-73
2022/01/17 12:08:44;;;;;;;11.65;4.63;;;;;;;;;;5071096;28;20032;-72
2022/01/17 12:11:24;;;;;;;11.55;4.53;;;;;;;;;;5071204;28;20079;-75
2022/01/17 12:13:50;;;;;;;13.23;5.07;;;;;;;;;;5071068;28;20043;-74
2022/01/17 12:16:21;;;;;;;11.07;4.22;;;;;;;;;;5071274;28;20024;-72
2022/01/17 12:18:47;;;;;;;;;;;;;;;;;;5075387;28;20363;-71
2022/01/17 12:21:17;;;;;;;10.13;4.07;;;;;;;;;;5057272;28;19910;-72
2022/01/17 12:23:43;;;;;;;10.52;3.83;;;;;;;;;;5075238;28;20021;-73
2022/01/17 12:26:29;;;;;;;13.60;4.85;;;;;;;;;;5067423;28;20109;-73
2022/01/17 12:28:56;;;;;;;6.88;3.15;;;;;;;;;;5054516;28;20518;-76
2022/01/17 12:32:00;;;;;;;11.48;4.50;;;;;;;;;;5055512;28;20475;-74
2022/01/17 12:34:26;;;;;;;8.85;3.83;;;;;;;;;;4973607;28;20035;-72
2022/01/17 12:36:53;;;;;;;11.27;4.20;;;;;;;;;;4990997;28;20042;-72
2022/01/17 12:39:21;;;;;;;8.40;3.30;;;;;;;;;;5032433;28;20062;-73
2022/01/17 12:41:48;;;;;;;8.25;4.07;;;;;;;;;;5057171;28;20027;-72
2022/01/17 12:44:16;;;;;;;4.65;2.83;;;;;;;;;;5075188;28;20097;-74
2022/01/17 12:46:43;;;;;;;6.50;2.60;;;;;;;;;;5075071;28;20048;-72
2022/01/17 12:49:09;;;;;;;5.28;2.65;;;;;;;;;;5075002;28;20039;-74
2022/01/17 12:51:39;;;;;;;6.90;2.75;;;;;;;;;;5074903;28;20032;-74
2022/01/17 12:54:08;;;;;;;6.55;2.30;;;;;;;;;;5056466;28;20020;-74
2022/01/17 12:56:34;;;;;;;5.78;2.63;;;;;;;;;;5074921;28;20520;-75
2022/01/17 12:59:02;;;;;;;4.85;2.53;;;;;;;;;;5074860;28;20025;-75
2022/01/17 13:01:28;;;;;;;5.25;2.70;;;;;;;;;;5056990;28;20445;-72
2022/01/17 13:04:04;;;;;;;10.27;3.72;;;;;;;;;;5074452;28;20017;-73
2022/01/17 13:06:30;;;;;;;2.55;2.10;;;;;;;;;;5074701;28;20394;-72
2022/01/17 13:08:59;;;;;;;6.03;2.15;;;;;;;;;;5074387;28;20029;-74
2022/01/17 13:11:25;;;;;;;10.13;2.17;;;;;;;;;;5074743;28;20043;-71
2022/01/17 13:14:01;;;;;;;11.82;4.93;;;;;;;;;;5056330;28;20167;-72
2022/01/17 13:16:27;;;;;;;11.93;4.97;;;;;;;;;;5074423;28;20020;-75
2022/01/17 13:18:55;;;;;;;11.82;3.75;;;;;;;;;;5056208;28;20024;-71
2022/01/17 13:21:21;;;;;;;14.40;3.25;;;;;;;;;;5074297;28;20394;-74
2022/01/17 13:23:53;;;;;;;6.18;1.73;;;;;;;;;;5074218;28;20032;-74
2022/01/17 13:26:24;;;;;;;11.65;1.95;;;;;;;;;;5074633;28;20120;-73
2022/01/17 13:28:54;;;;;;;11.03;1.77;;;;;;;;;;5074267;28;20024;-73
2022/01/17 13:31:20;;;;;;;11.68;2.63;;;;;;;;;;5074238;28;20074;-73
2022/01/17 13:33:46;;;;;;;11.27;2.20;;;;;;;;;;5055810;28;20040;-70
2022/01/17 13:36:19;;;;;;;9.90;2.75;;;;;;;;;;5061948;28;20021;-73
2022/01/17 13:38:58;;;;;;;13.07;2.53;;;;;;;;;;5054088;28;20079;-75
2022/01/17 13:41:28;;;;;;;14.60;2.60;;;;;;;;;;5035827;28;20023;-73
2022/01/17 13:43:54;;;;;;;15.73;2.17;;;;;;;;;;5053499;28;20021;-72
2022/01/17 13:46:20;;;;;;;19.75;2.60;;;;;;;;;;5053775;28;20034;-73
2022/01/17 13:48:46;;;;;;;21.33;3.90;;;;;;;;;;5052527;28;20052;-74
2022/01/17 13:51:12;;;;;;;22.45;3.80;;;;;;;;;;5051722;28;20021;-73
2022/01/17 13:53:38;;;;;;;15.13;3.30;;;;;;;;;;5051637;28;20112;-74
2022/01/17 13:56:06;;;;;;;23.08;2.60;;;;;;;;;;5051557;28;20083;-74
2022/01/17 13:58:33;;;;;;;12.90;2.53;;;;;;;;;;5051624;28;20032;-71
2022/01/17 14:00:59;;;;;;;14.43;2.50;;;;;;;;;;5052016;28;20021;-72
2022/01/17 14:03:26;;;;;;;27.10;3.17;;;;;;;;;;5051556;28;20025;-73
2022/01/17 14:05:53;;;;;;;17.60;2.85;;;;;;;;;;5053660;28;20033;-73
2022/01/17 14:08:22;;;;;;;16.83;3.78;;;;;;;;;;5035285;28;20025;-73
2022/01/17 14:11:00;;;;;;;16.58;3.20;;;;;;;;;;5053171;28;20029;-72
2022/01/17 14:13:31;;;;;;;21.52;4.53;;;;;;;;;;5051858;28;20033;-72
2022/01/17 14:16:17;;;;;;;6.13;2.13;;;;;;;;;;5034724;28;20463;-73
2022/01/17 14:18:47;;;;;;;13.95;2.50;;;;;;;;;;5058481;28;20029;-73
2022/01/17 14:21:25;;;;;;;13.60;2.80;;;;;;;;;;5067246;28;20067;-73
2022/01/17 14:24:17;;;;;;;18.25;3.03;;;;;;;;;;5052872;28;20025;-69
2022/01/17 14:26:48;;;;;;;18.40;4.28;;;;;;;;;;5056549;28;20037;-74
2022/01/17 14:29:15;;;;;;;15.73;3.33;;;;;;;;;;5073237;28;20048;-72
2022/01/17 14:31:43;;;;;;;11.40;2.70;;;;;;;;;;5073132;28;20032;-71
2022/01/17 14:34:18;;;;;;;15.00;2.10;;;;;;;;;;5072861;28;20025;-71
2022/01/17 14:36:44;;;;;;;16.83;2.67;;;;;;;;;;5069226;28;20048;-71
2022/01/17 14:39:12;;;;;;;16.00;3.13;;;;;;;;;;5073154;28;20036;-73
2022/01/17 14:41:40;;;;;;;16.13;2.97;;;;;;;;;;5072639;28;20031;-73
2022/01/17 14:44:12;;;;;;;10.50;2.60;;;;;;;;;;5054728;28;20554;-73
2022/01/17 14:46:48;;;;;;;18.48;4.47;;;;;;;;;;5054509;28;20074;-73
2022/01/17 14:49:15;;;;;;;14.48;4.45;;;;;;;;;;5071908;28;20024;-73
2022/01/17 14:51:44;;;;;;;13.85;3.35;;;;;;;;;;5069251;28;20027;-73
2022/01/17 14:54:15;;;;;;;12.00;2.40;;;;;;;;;;5051389;28;20422;-73
2022/01/17 14:59:40;;;;;;;5.75;1.95;;;;;;;;;;5051464;28;20411;-73
2022/01/17 15:04:38;;;;;;;17.30;2.42;;;;;;;;;;5052456;28;20025;-74
2022/01/17 15:07:05;;;;;;;14.02;3.38;;;;;;;;;;5034557;28;20032;-73